Time;durP1;ratioP1;P1;durP2;ratioP2;P2;SDS_P1;SDS_P2;PMS_P1;PMS_P2;Temp;Humidity;BMP_temperature;BMP_pressure;BME280_temperature;BME280_humidity;BME280_pressure;Samples;Min_cycle;Max_cycle;Signal;HPM_P1;HPM_P2
2022/01/26 00:07:03;;;;;;;15.15;8.90;;;-2.20;65.30;;;;;;5067334;28;20507;-58
2022/01/26 00:09:29;;;;;;;19.55;11.65;;;-2.20;65.40;;;;;;5068729;28;20036;-58
2022/01/26 00:11:55;;;;;;;17.80;10.52;;;-2.20;65.50;;;;;;5067209;28;20496;-59
2022/01/26 00:14:20;;;;;;;16.17;9.88;;;-2.20;65.80;;;;;;5065916;28;20472;-57
2022/01/26 00:16:46;;;;;;;15.82;10.23;;;-2.20;65.80;;;;;;5068906;28;20029;-57
2022/01/26 00:19:24;;;;;;;21.00;17.45;;;-2.30;65.80;;;;;;5072516;28;20039;-59
2022/01/26 00:21:55;;;;;;;17.50;10.55;;;-2.20;65.90;;;;;;5088218;28;20060;-59
2022/01/26 00:29:35;;;;;;;14.93;9.05;;;-2.30;66.00;;;;;;5081829;28;20040;-58
2022/01/26 00:40:20;;;;;;;22.10;10.90;;;-2.30;66.50;;;;;;5093357;28;20043;-59
2022/01/26 00:42:49;;;;;;;13.90;8.43;;;-2.30;66.70;;;;;;5080369;28;20032;-57
2022/01/26 00:45:26;;;;;;;21.60;17.83;;;-2.30;66.50;;;;;;5090161;28;20024;-59
2022/01/26 00:47:51;;;;;;;22.42;11.73;;;-2.20;66.60;;;;;;5094263;28;20020;-58
2022/01/26 00:50:17;;;;;;;17.92;10.35;;;-2.20;66.20;;;;;;5092333;28;20031;-58
2022/01/26 00:52:51;;;;;;;14.75;9.75;;;-2.20;66.30;;;;;;5084815;28;20013;-58
2022/01/26 00:55:17;;;;;;;22.45;17.42;;;-2.20;66.20;;;;;;5083488;28;20111;-59
2022/01/26 00:57:44;;;;;;;22.85;13.48;;;-2.10;66.00;;;;;;5093010;28;20031;-58
2022/01/26 01:00:16;;;;;;;18.02;11.82;;;-2.10;65.80;;;;;;5090836;28;20106;-58
2022/01/26 01:02:42;;;;;;;23.45;18.33;;;-2.10;65.80;;;;;;5084454;28;20031;-57
2022/01/26 01:05:21;;;;;;;27.10;20.55;;;-2.10;65.90;;;;;;5091185;28;20415;-58
2022/01/26 01:07:51;;;;;;;25.63;12.80;;;-2.00;65.70;;;;;;5087678;28;20028;-59
2022/01/26 01:10:18;;;;;;;17.58;10.38;;;-2.10;65.50;;;;;;5092874;28;20070;-58
2022/01/26 01:12:44;;;;;;;19.73;11.60;;;-2.10;65.70;;;;;;5078919;28;20016;-59
2022/01/26 01:15:12;;;;;;;24.60;19.52;;;-2.10;65.80;;;;;;5083100;28;20020;-58
2022/01/26 01:17:43;;;;;;;26.17;21.08;;;-2.00;65.90;;;;;;5091722;28;20107;-57
2022/01/26 01:20:36;;;;;;;20.50;12.65;;;-2.00;65.60;;;;;;5091163;28;20038;-58
2022/01/26 01:30:36;;;;;;;17.75;10.95;;;-2.00;65.60;;;;;;5093357;28;20035;-59
2022/01/26 01:33:10;;;;;;;20.63;12.13;;;-2.00;65.90;;;;;;5079696;28;20024;-58
2022/01/26 01:35:39;;;;;;;23.75;19.20;;;-2.10;66.10;;;;;;5080144;28;20032;-59
2022/01/26 01:38:10;;;;;;;23.15;12.80;;;-2.00;66.30;;;;;;5082068;28;20039;-59
2022/01/26 01:40:41;;;;;;;22.67;19.55;;;-2.00;66.10;;;;;;5090729;28;20024;-59
2022/01/26 01:43:08;;;;;;;20.27;13.55;;;-2.00;66.20;;;;;;5083105;28;20120;-59
2022/01/26 01:45:36;;;;;;;24.58;19.88;;;-2.00;66.10;;;;;;5091537;28;20040;-59
2022/01/26 01:48:03;;;;;;;22.30;11.73;;;-1.90;66.30;;;;;;5092819;28;20357;-59
2022/01/26 01:50:29;;;;;;;20.83;11.13;;;-1.90;66.10;;;;;;5081351;28;20028;-58
2022/01/26 01:53:02;;;;;;;16.67;10.20;;;-1.90;66.30;;;;;;5085782;28;20372;-59
2022/01/26 01:55:29;;;;;;;15.10;9.52;;;-1.90;66.30;;;;;;5092245;28;20030;-58
2022/01/26 01:57:57;;;;;;;17.38;9.98;;;-1.90;66.40;;;;;;5089536;28;20082;-59
2022/01/26 02:00:24;;;;;;;22.17;11.45;;;-1.90;66.40;;;;;;5086750;28;20027;-59
2022/01/26 02:02:50;;;;;;;22.65;19.10;;;-1.90;66.40;;;;;;5092267;28;20078;-58
2022/01/26 02:05:16;;;;;;;20.27;12.40;;;-1.90;66.60;;;;;;5076575;28;20033;-58
2022/01/26 02:07:42;;;;;;;19.15;12.02;;;-1.80;66.50;;;;;;5084475;28;20040;-59
2022/01/26 02:10:09;;;;;;;19.15;10.50;;;-1.80;66.40;;;;;;5086980;28;20154;-59
2022/01/26 02:12:38;;;;;;;24.98;19.65;;;-1.80;66.50;;;;;;5084322;28;20027;-59
2022/01/26 02:15:11;;;;;;;28.08;22.17;;;-1.70;66.40;;;;;;5097022;28;20431;-57
2022/01/26 02:55:36;;;;;;;26.23;13.75;;;-1.60;67.10;;;;;;5067217;28;20080;-59
2022/01/26 03:01:00;;;;;;;22.35;11.00;;;-1.60;67.00;;;;;;5068048;28;20538;-59
2022/01/26 03:04:14;;;;;;;19.23;9.65;;;-1.60;67.00;;;;;;5063159;28;20436;-59
2022/01/26 03:06:19;;;;;;;17.58;10.68;;;-1.60;67.00;;;;;;5055387;28;20029;-59
2022/01/26 03:08:52;;;;;;;21.60;14.00;;;-1.70;66.90;;;;;;5058082;28;20021;-58
2022/01/26 03:11:18;;;;;;;18.42;11.70;;;-1.70;67.00;;;;;;5071606;28;20028;-57
2022/01/26 03:13:53;;;;;;;21.33;11.13;;;-1.70;67.00;;;;;;5072574;28;20040;-59
2022/01/26 03:16:28;;;;;;;25.92;20.65;;;-1.70;67.00;;;;;;5074464;28;20536;-56
2022/01/26 03:21:26;;;;;;;22.70;12.50;;;-1.60;66.90;;;;;;5085140;28;20055;-57
2022/01/26 03:34:38;;;;;;;25.95;13.85;;;-1.50;67.30;;;;;;5087021;28;20035;-58
2022/01/26 03:37:07;;;;;;;19.42;12.13;;;-1.50;67.20;;;;;;5095286;28;20028;-58
2022/01/26 03:39:41;;;;;;;27.33;14.15;;;-1.60;67.20;;;;;;5091536;28;20103;-59
2022/01/26 03:42:09;;;;;;;22.90;11.77;;;-1.50;67.30;;;;;;5086273;28;20028;-59
2022/01/26 03:44:35;;;;;;;18.40;12.05;;;-1.50;67.50;;;;;;5094569;28;20115;-58
2022/01/26 03:47:01;;;;;;;21.58;12.82;;;-1.50;67.50;;;;;;5095171;28;20103;-58
2022/01/26 03:49:27;;;;;;;22.25;11.50;;;-1.50;67.50;;;;;;5092044;28;20124;-59
2022/01/26 03:51:53;;;;;;;17.70;11.98;;;-1.50;67.40;;;;;;5087175;28;20063;-59
2022/01/26 03:54:20;;;;;;;23.60;13.25;;;-1.50;67.40;;;;;;5093015;28;20468;-59
2022/01/26 03:56:45;;;;;;;20.88;11.77;;;-1.60;67.30;;;;;;5085412;28;20487;-58
2022/01/26 03:59:11;;;;;;;28.65;22.27;;;-1.60;67.50;;;;;;5094464;28;20027;-59
2022/01/26 04:01:38;;;;;;;28.50;14.95;;;-1.60;67.60;;;;;;5093727;28;20028;-58
2022/01/26 04:04:05;;;;;;;19.88;13.07;;;-1.60;67.60;;;;;;5080895;28;20024;-58
2022/01/26 04:06:32;;;;;;;23.63;12.45;;;-1.60;67.70;;;;;;5090044;28;20074;-58
2022/01/26 04:08:58;;;;;;;25.05;19.83;;;-1.60;67.60;;;;;;5084479;28;20016;-58
2022/01/26 04:11:34;;;;;;;20.13;13.20;;;-1.60;67.80;;;;;;5088392;28;20081;-59
2022/01/26 04:14:04;;;;;;;28.45;22.70;;;-1.60;67.80;;;;;;5086488;28;20042;-58
2022/01/26 04:16:30;;;;;;;29.02;15.00;;;-1.60;68.20;;;;;;5092665;28;20052;-57
2022/01/26 04:18:57;;;;;;;34.65;16.55;;;-1.50;68.20;;;;;;5092985;28;20063;-58
2022/01/26 04:26:36;;;;;;;25.67;22.25;;;-1.60;68.20;;;;;;5089437;28;20032;-59
2022/01/26 04:29:08;;;;;;;25.42;14.30;;;-1.40;68.40;;;;;;5092429;28;20032;-59
2022/01/26 04:31:34;;;;;;;29.48;23.50;;;-1.50;68.20;;;;;;5081100;28;20035;-55
2022/01/26 04:34:00;;;;;;;29.38;23.55;;;-1.40;68.40;;;;;;5092496;28;20028;-58
2022/01/26 04:36:42;;;;;;;31.73;17.42;;;-1.30;68.50;;;;;;5073191;28;20036;-58
2022/01/26 04:39:12;;;;;;;25.48;22.55;;;-1.40;68.30;;;;;;5090301;28;20020;-59
2022/01/26 04:41:48;;;;;;;28.65;24.42;;;-1.30;68.70;;;;;;5081015;28;20021;-58
2022/01/26 04:44:25;;;;;;;26.58;22.40;;;-1.30;68.50;;;;;;5091032;28;20040;-59
2022/01/26 04:46:52;;;;;;;24.38;13.88;;;-1.20;68.50;;;;;;5085044;28;20063;-59
2022/01/26 04:49:18;;;;;;;24.00;14.45;;;-1.20;68.20;;;;;;5093066;28;20026;-58
2022/01/26 04:51:44;;;;;;;26.50;13.88;;;-1.30;68.20;;;;;;5093422;28;20081;-58
2022/01/26 04:54:11;;;;;;;24.83;15.10;;;-1.30;68.30;;;;;;5093004;28;20028;-59
2022/01/26 04:56:37;;;;;;;21.83;13.00;;;-1.30;68.50;;;;;;5087229;28;20047;-58
2022/01/26 04:59:03;;;;;;;29.50;15.40;;;-1.20;68.50;;;;;;5091311;28;20024;-59
2022/01/26 05:01:29;;;;;;;25.40;13.57;;;-1.20;68.60;;;;;;5092057;28;20036;-59
2022/01/26 05:03:55;;;;;;;24.75;14.20;;;-1.20;68.60;;;;;;5081175;28;20383;-59
2022/01/26 05:06:20;;;;;;;22.45;13.05;;;-1.20;68.70;;;;;;5082294;28;20365;-57
2022/01/26 05:08:46;;;;;;;21.17;13.02;;;-1.20;69.40;;;;;;5093136;28;20035;-58
2022/01/26 05:11:17;;;;;;;24.70;13.82;;;-1.20;68.70;;;;;;5076380;28;20070;-57
2022/01/26 05:13:43;;;;;;;28.60;14.45;;;-1.20;68.70;;;;;;5075888;28;20361;-59
2022/01/26 05:16:09;;;;;;;31.33;14.77;;;-1.10;69.40;;;;;;5084100;28;20035;-59
2022/01/26 05:18:35;;;;;;;27.95;15.68;;;-1.10;68.70;;;;;;5092550;28;20024;-58
2022/01/26 05:21:01;;;;;;;28.77;22.35;;;-1.10;68.70;;;;;;5092686;28;20054;-59
2022/01/26 05:23:26;;;;;;;27.92;14.48;;;-1.00;68.70;;;;;;5083036;28;20039;-57
2022/01/26 05:25:53;;;;;;;29.83;25.13;;;-0.90;68.30;;;;;;5080426;28;20029;-58
2022/01/26 05:28:18;;;;;;;30.90;15.80;;;-0.90;68.40;;;;;;5092581;28;20023;-58
2022/01/26 05:30:44;;;;;;;31.75;16.58;;;-1.00;68.00;;;;;;5079641;28;20034;-59
2022/01/26 05:33:10;;;;;;;32.47;25.25;;;-1.00;68.10;;;;;;5085004;28;20032;-59
2022/01/26 05:35:36;;;;;;;28.55;16.52;;;-0.90;68.40;;;;;;5087981;28;20124;-59
2022/01/26 05:38:02;;;;;;;24.50;14.40;;;-1.00;68.30;;;;;;5082175;28;20040;-58
2022/01/26 05:40:27;;;;;;;31.77;25.33;;;-1.00;68.50;;;;;;5092837;28;20369;-59
2022/01/26 05:42:53;;;;;;;28.08;14.10;;;-0.90;68.70;;;;;;5092791;28;20024;-59
2022/01/26 05:45:26;;;;;;;31.50;24.63;;;-0.90;68.50;;;;;;5092790;28;20028;-59
2022/01/26 05:47:52;;;;;;;27.13;15.95;;;-0.80;68.70;;;;;;5090260;28;20429;-58
2022/01/26 05:50:19;;;;;;;26.45;14.98;;;-0.80;68.40;;;;;;5083883;28;20074;-59
2022/01/26 05:52:45;;;;;;;35.42;25.50;;;-0.80;68.80;;;;;;5092412;28;20024;-59
2022/01/26 05:55:10;;;;;;;25.83;15.98;;;-0.80;68.80;;;;;;5091668;28;20365;-57
2022/01/26 05:57:36;;;;;;;32.75;17.15;;;-0.80;68.80;;;;;;5087287;28;20396;-57
2022/01/26 06:00:03;;;;;;;24.85;13.95;;;-0.80;68.90;;;;;;5083913;28;20033;-59
2022/01/26 06:02:31;;;;;;;21.38;12.60;;;-0.80;69.10;;;;;;5082206;28;20494;-57
2022/01/26 06:04:56;;;;;;;27.15;14.80;;;-0.70;69.20;;;;;;5078149;28;20385;-59
2022/01/26 06:07:22;;;;;;;31.67;15.10;;;-0.70;69.10;;;;;;5088319;28;20036;-61
2022/01/26 06:09:47;;;;;;;22.08;12.60;;;-0.70;69.30;;;;;;5088868;28;20598;-61
2022/01/26 06:12:13;;;;;;;23.67;13.93;;;-0.70;69.20;;;;;;5084956;28;20125;-61
2022/01/26 06:14:39;;;;;;;23.50;12.85;;;-0.70;69.00;;;;;;5078264;28;20016;-59
2022/01/26 06:17:04;;;;;;;21.88;13.05;;;-0.70;69.00;;;;;;5082661;28;20023;-59
2022/01/26 06:19:30;;;;;;;26.75;14.43;;;-0.70;69.20;;;;;;5080900;28;20031;-59
2022/01/26 06:21:56;;;;;;;26.75;15.65;;;-0.70;69.20;;;;;;5081383;28;20488;-58
2022/01/26 06:24:21;;;;;;;36.15;26.00;;;-0.70;69.40;;;;;;5079824;28;20040;-57
2022/01/26 06:26:47;;;;;;;27.67;15.38;;;-0.60;69.70;;;;;;5086063;28;20020;-59
2022/01/26 06:29:12;;;;;;;27.90;15.60;;;-0.60;69.50;;;;;;5083140;28;20353;-58
2022/01/26 06:31:41;;;;;;;27.13;16.75;;;-0.60;69.50;;;;;;5080228;28;20036;-58
2022/01/26 06:34:10;;;;;;;35.85;27.05;;;-0.50;69.60;;;;;;5090420;28;20161;-59
2022/01/26 06:36:37;;;;;;;30.92;18.63;;;-0.40;69.80;;;;;;5086777;28;20411;-58
2022/01/26 06:39:04;;;;;;;32.88;19.08;;;-0.40;69.40;;;;;;5092393;28;20024;-56
2022/01/26 06:41:30;;;;;;;34.33;17.42;;;-0.40;69.50;;;;;;5076944;28;20047;-59
2022/01/26 06:44:06;;;;;;;37.05;28.33;;;-0.40;69.50;;;;;;5087598;28;20671;-59
2022/01/26 06:46:50;;;;;;;37.95;19.42;;;-0.30;69.70;;;;;;5093132;28;20055;-59
2022/01/26 06:51:48;;;;;;;;;;;-0.30;69.60;;;;;;5078971;28;20025;-59
2022/01/26 06:54:14;;;;;;;25.17;15.40;;;-0.30;69.80;;;;;;5081601;28;21277;-59
2022/01/26 06:56:39;;;;;;;34.05;16.70;;;-0.20;69.80;;;;;;5086637;28;20115;-56
2022/01/26 06:59:05;;;;;;;39.45;29.77;;;-0.20;69.70;;;;;;5081261;28;20078;-59
2022/01/26 07:01:31;;;;;;;33.42;18.42;;;0.00;70.00;;;;;;5089531;28;20028;-59
2022/01/26 07:03:56;;;;;;;40.72;31.60;;;0.00;69.70;;;;;;5085040;28;20020;-59
2022/01/26 07:06:22;;;;;;;36.60;20.50;;;0.10;69.80;;;;;;5079561;28;21924;-59
2022/01/26 07:08:48;;;;;;;33.70;19.42;;;0.10;69.60;;;;;;5072424;28;20101;-57
2022/01/26 07:11:13;;;;;;;31.30;18.13;;;0.10;69.60;;;;;;5076897;28;20024;-59
2022/01/26 07:13:40;;;;;;;34.45;18.52;;;0.20;69.70;;;;;;5075421;28;20082;-58
2022/01/26 07:21:34;;;;;;;29.60;18.08;;;0.20;69.90;;;;;;5065332;28;20087;-58
2022/01/26 07:24:00;;;;;;;29.38;18.42;;;0.20;70.00;;;;;;5058734;28;20115;-58
2022/01/26 07:26:30;;;;;;;33.00;18.27;;;0.30;70.00;;;;;;5042109;28;20032;-58
2022/01/26 07:28:58;;;;;;;32.45;19.95;;;0.30;70.00;;;;;;5058851;28;20032;-58
2022/01/26 07:31:24;;;;;;;32.17;18.63;;;0.40;70.00;;;;;;5059336;28;20060;-58
2022/01/26 07:33:55;;;;;;;31.33;17.38;;;0.40;69.90;;;;;;5056102;28;20067;-58
2022/01/26 07:36:22;;;;;;;33.08;18.60;;;0.40;70.00;;;;;;5056627;28;20037;-57
2022/01/26 07:38:52;;;;;;;32.80;17.98;;;0.50;70.10;;;;;;5056804;28;20147;-58
2022/01/26 07:41:18;;;;;;;44.85;35.22;;;0.50;70.10;;;;;;5049825;28;22611;-58
2022/01/26 07:43:44;;;;;;;48.58;36.47;;;0.60;70.00;;;;;;5057547;28;20025;-57
2022/01/26 07:46:10;;;;;;;45.03;23.73;;;0.60;69.60;;;;;;5058592;28;20764;-58
2022/01/26 07:48:36;;;;;;;49.35;35.67;;;0.60;69.30;;;;;;5052922;28;20027;-59
2022/01/26 07:51:02;;;;;;;44.20;22.30;;;0.70;69.50;;;;;;5052816;28;20016;-58
2022/01/26 07:53:28;;;;;;;40.47;21.02;;;0.70;69.50;;;;;;5052068;28;20032;-58
2022/01/26 07:55:56;;;;;;;35.53;21.67;;;0.60;69.70;;;;;;5048980;28;20040;-59
2022/01/26 07:58:22;;;;;;;39.67;20.58;;;0.60;69.70;;;;;;5055142;28;20041;-58
2022/01/26 08:00:48;;;;;;;34.97;20.90;;;0.60;69.80;;;;;;5053566;28;20036;-58
2022/01/26 08:03:14;;;;;;;33.88;19.33;;;0.70;69.90;;;;;;5057549;28;20112;-59
2022/01/26 08:05:39;;;;;;;35.63;19.77;;;0.70;69.90;;;;;;5053113;28;20064;-58
2022/01/26 08:08:05;;;;;;;37.65;20.92;;;0.70;70.00;;;;;;5046500;28;20429;-59
2022/01/26 08:10:31;;;;;;;37.70;19.83;;;0.70;69.90;;;;;;5042880;28;20048;-59
2022/01/26 08:12:57;;;;;;;30.33;18.77;;;0.70;70.00;;;;;;5053355;28;20403;-59
2022/01/26 08:15:24;;;;;;;37.22;19.80;;;0.70;70.00;;;;;;5054343;28;20044;-58
2022/01/26 08:17:50;;;;;;;35.60;21.35;;;0.70;70.10;;;;;;5058221;28;20027;-59
2022/01/26 08:20:15;;;;;;;52.10;39.72;;;0.80;70.20;;;;;;5049645;28;20607;-59
2022/01/26 08:22:41;;;;;;;41.25;22.88;;;0.90;70.30;;;;;;5065222;28;20035;-59
2022/01/26 08:25:07;;;;;;;42.33;24.95;;;0.90;70.00;;;;;;5064889;28;20119;-59
2022/01/26 08:27:40;;;;;;;40.83;23.83;;;0.90;70.00;;;;;;5063985;28;20365;-60
2022/01/26 08:30:10;;;;;;;36.38;21.83;;;0.90;70.10;;;;;;5067062;28;20094;-57
2022/01/26 08:32:36;;;;;;;35.60;20.60;;;0.90;70.20;;;;;;5059893;28;20036;-61
2022/01/26 08:35:02;;;;;;;31.15;17.70;;;0.90;70.20;;;;;;5067033;28;20162;-60
2022/01/26 08:37:28;;;;;;;32.42;16.75;;;1.00;70.30;;;;;;5064338;28;20452;-59
2022/01/26 08:39:54;;;;;;;31.38;17.05;;;1.00;70.40;;;;;;5065412;28;20043;-60
2022/01/26 08:42:20;;;;;;;30.67;17.10;;;1.00;70.50;;;;;;5065412;28;20059;-59
2022/01/26 08:44:45;;;;;;;38.47;28.40;;;1.10;70.60;;;;;;5064026;28;20114;-58
2022/01/26 08:47:11;;;;;;;33.53;19.40;;;1.10;70.50;;;;;;5065710;28;20032;-58
2022/01/26 08:49:37;;;;;;;28.45;16.35;;;1.10;70.20;;;;;;5061026;28;20036;-58
2022/01/26 08:52:04;;;;;;;28.70;17.27;;;1.10;70.40;;;;;;5068516;28;20706;-58
2022/01/26 08:54:29;;;;;;;27.02;14.98;;;1.10;70.40;;;;;;5071617;28;20024;-58
2022/01/26 08:56:55;;;;;;;32.42;16.85;;;1.10;70.40;;;;;;5064928;28;20060;-59
2022/01/26 08:59:24;;;;;;;27.02;15.93;;;1.20;70.50;;;;;;5061226;28;20097;-59
2022/01/26 09:01:50;;;;;;;37.88;27.98;;;1.20;70.50;;;;;;5071025;28;20118;-58
2022/01/26 09:04:16;;;;;;;31.38;18.63;;;1.30;70.50;;;;;;5069766;28;20039;-59
2022/01/26 09:07:02;;;;;;;39.67;29.05;;;1.30;70.30;;;;;;5068175;28;20098;-60
2022/01/26 09:09:31;;;;;;;31.42;18.33;;;1.30;70.30;;;;;;5066026;28;20626;-60
2022/01/26 09:11:59;;;;;;;33.03;16.95;;;1.30;70.20;;;;;;5068076;28;20025;-61
2022/01/26 09:14:28;;;;;;;27.20;15.48;;;1.30;70.30;;;;;;5068595;28;20040;-58
2022/01/26 09:16:54;;;;;;;32.42;18.40;;;1.30;70.50;;;;;;5072397;28;20429;-60
2022/01/26 09:19:28;;;;;;;32.03;17.20;;;1.30;70.60;;;;;;5070273;28;20028;-61
2022/01/26 09:21:56;;;;;;;38.53;30.23;;;1.30;70.60;;;;;;5060668;28;20080;-62
2022/01/26 09:24:22;;;;;;;31.80;18.42;;;1.40;70.70;;;;;;5072127;28;20036;-60
2022/01/26 09:26:48;;;;;;;30.60;18.35;;;1.40;70.40;;;;;;5064281;28;20507;-59
2022/01/26 09:29:13;;;;;;;41.13;30.70;;;1.40;70.60;;;;;;5069106;28;20016;-59
2022/01/26 09:31:39;;;;;;;32.45;18.08;;;1.40;70.70;;;;;;5071321;28;20028;-59
2022/01/26 09:34:05;;;;;;;29.13;16.27;;;1.40;70.70;;;;;;5065453;28;20700;-60
2022/01/26 09:36:31;;;;;;;30.45;17.17;;;1.40;70.70;;;;;;5061429;28;21098;-59
2022/01/26 09:38:57;;;;;;;28.25;15.27;;;1.40;70.80;;;;;;5068185;28;20028;-58
2022/01/26 09:41:23;;;;;;;28.30;15.35;;;1.40;70.80;;;;;;5059395;28;22022;-60
2022/01/26 09:43:49;;;;;;;32.80;17.63;;;1.40;70.90;;;;;;5062593;28;20043;-60
2022/01/26 09:46:15;;;;;;;36.17;18.35;;;1.40;70.90;;;;;;5065888;28;20017;-59
2022/01/26 09:48:42;;;;;;;33.67;18.67;;;1.40;70.90;;;;;;5062531;28;20047;-60
2022/01/26 09:51:12;;;;;;;33.20;17.27;;;1.40;70.90;;;;;;5056022;28;20601;-59
2022/01/26 09:53:38;;;;;;;37.50;27.42;;;1.40;70.80;;;;;;5057821;28;20032;-59
2022/01/26 09:56:04;;;;;;;34.95;18.23;;;1.50;70.90;;;;;;5057420;28;20098;-59
2022/01/26 09:58:30;;;;;;;39.97;20.15;;;1.50;70.70;;;;;;5058203;28;20127;-59
2022/01/26 10:01:01;;;;;;;32.78;17.88;;;1.40;70.70;;;;;;5059251;28;21628;-58
2022/01/26 10:03:31;;;;;;;;;;;1.40;70.80;;;;;;5067844;28;20070;-59
2022/01/26 10:05:57;;;;;;;30.23;16.65;;;1.40;70.80;;;;;;5066984;28;19943;-57
2022/01/26 10:08:50;;;;;;;31.90;15.77;;;1.40;70.70;;;;;;5072876;28;20039;-58
2022/01/26 10:17:18;;;;;;;28.65;17.10;;;1.50;70.50;;;;;;5059610;28;21937;-60
2022/01/26 10:19:22;;;;;;;29.02;15.85;;;1.50;70.60;;;;;;5066767;28;22765;-57
2022/01/26 10:21:50;;;;;;;37.35;28.40;;;1.50;70.70;;;;;;5069463;28;20078;-59
2022/01/26 10:24:18;;;;;;;34.25;18.38;;;1.60;70.50;;;;;;5068833;28;20044;-59
2022/01/26 10:26:58;;;;;;;30.73;17.77;;;1.60;70.20;;;;;;5064208;28;20028;-59
2022/01/26 10:29:23;;;;;;;39.28;28.73;;;1.60;70.30;;;;;;5070048;28;20028;-59
2022/01/26 10:31:49;;;;;;;29.55;18.65;;;1.70;70.30;;;;;;5065414;28;20117;-59
2022/01/26 10:34:22;;;;;;;28.77;17.35;;;1.70;70.00;;;;;;5063523;28;20040;-58
2022/01/26 10:37:00;;;;;;;29.98;16.08;;;1.60;70.10;;;;;;5067510;28;20032;-59
2022/01/26 10:39:33;;;;;;;30.05;15.93;;;1.70;70.30;;;;;;5065294;28;20099;-59
2022/01/26 10:42:04;;;;;;;42.33;30.55;;;1.60;70.30;;;;;;5066279;28;20373;-59
2022/01/26 10:44:40;;;;;;;33.75;19.27;;;1.70;70.30;;;;;;5072984;28;20094;-59
2022/01/26 10:47:09;;;;;;;32.92;19.70;;;1.70;70.10;;;;;;5065674;28;20040;-59
2022/01/26 10:49:56;;;;;;;31.60;17.35;;;1.70;70.20;;;;;;5070975;28;20025;-59
2022/01/26 10:52:34;;;;;;;34.53;17.90;;;1.70;70.20;;;;;;5073448;28;20056;-59
2022/01/26 10:55:00;;;;;;;38.25;26.80;;;1.70;70.30;;;;;;5070255;28;20051;-60
2022/01/26 10:57:26;;;;;;;35.20;17.77;;;1.70;70.30;;;;;;5069144;28;20063;-58
2022/01/26 10:59:52;;;;;;;29.20;17.35;;;1.70;70.20;;;;;;5072364;28;20476;-59
2022/01/26 11:02:24;;;;;;;28.95;17.52;;;1.70;70.40;;;;;;5065883;28;20081;-60
2022/01/26 11:04:50;;;;;;;32.97;17.35;;;1.70;70.50;;;;;;5068568;28;20039;-58
2022/01/26 11:07:16;;;;;;;41.08;26.13;;;1.70;70.60;;;;;;5068421;28;20028;-58
2022/01/26 11:09:47;;;;;;;34.00;18.55;;;1.70;70.70;;;;;;5076615;28;20024;-60
2022/01/26 11:12:16;;;;;;;42.55;30.58;;;1.70;70.50;;;;;;5073690;28;20028;-58
2022/01/26 11:14:47;;;;;;;39.58;20.20;;;1.90;70.50;;;;;;5076537;28;20032;-59
2022/01/26 11:17:33;;;;;;;36.60;18.77;;;1.90;70.30;;;;;;5077241;28;20503;-60
2022/01/26 11:20:03;;;;;;;32.88;18.02;;;1.90;70.30;;;;;;5070856;28;20088;-58
2022/01/26 11:22:31;;;;;;;34.30;18.70;;;1.80;70.40;;;;;;5070431;28;20051;-58
2022/01/26 11:25:11;;;;;;;32.55;17.13;;;1.80;70.30;;;;;;5070664;28;20484;-59
2022/01/26 11:27:39;;;;;;;32.22;16.60;;;1.80;70.30;;;;;;5074956;28;20028;-59
2022/01/26 11:30:28;;;;;;;37.35;27.42;;;1.70;70.20;;;;;;5071266;28;20032;-59
2022/01/26 11:33:02;;;;;;;33.20;17.40;;;1.80;70.30;;;;;;5063773;28;20032;-59
2022/01/26 11:35:31;;;;;;;38.40;28.35;;;1.70;70.00;;;;;;5076041;28;20034;-58
2022/01/26 11:38:16;;;;;;;28.58;16.83;;;1.70;70.10;;;;;;5072418;28;20078;-58
2022/01/26 11:46:25;;;;;;;30.35;16.38;;;1.60;69.80;;;;;;5069273;28;20546;-58
2022/01/26 11:49:10;;;;;;;33.60;24.73;;;1.60;70.00;;;;;;5073210;28;20028;-59
2022/01/26 11:51:48;;;;;;;30.48;15.77;;;1.60;70.70;;;;;;5079046;28;20028;-60
2022/01/26 11:54:19;;;;;;;29.02;15.88;;;1.50;69.80;;;;;;5070622;28;20032;-59
2022/01/26 11:57:00;;;;;;;30.85;15.98;;;1.50;70.10;;;;;;5068759;28;20111;-60
2022/01/26 11:59:28;;;;;;;27.90;14.50;;;1.40;70.10;;;;;;5059275;28;20048;-58
2022/01/26 12:01:59;;;;;;;25.67;14.15;;;1.40;70.30;;;;;;5052709;28;20055;-57
2022/01/26 12:04:26;;;;;;;26.15;14.27;;;1.40;70.40;;;;;;5055982;28;20040;-59
2022/01/26 12:06:58;;;;;;;33.70;24.02;;;1.40;70.40;;;;;;5071166;28;20041;-58
2022/01/26 12:09:25;;;;;;;33.17;16.50;;;1.50;70.40;;;;;;5071786;28;20031;-58
2022/01/26 12:11:55;;;;;;;29.73;15.73;;;1.50;70.10;;;;;;5071852;28;20051;-59
2022/01/26 12:14:22;;;;;;;27.67;12.97;;;1.50;70.20;;;;;;5070539;28;20085;-58
2022/01/26 12:16:51;;;;;;;22.70;12.70;;;1.40;70.10;;;;;;5066534;28;20280;-59
2022/01/26 12:35:50;;;;;;;23.17;13.52;;;1.60;69.10;;;;;;5071995;28;20131;-57
2022/01/26 12:38:31;;;;;;;31.45;22.75;;;1.60;69.40;;;;;;5076790;28;20028;-58
2022/01/26 12:43:58;;;;;;;27.02;14.27;;;1.60;69.40;;;;;;5070054;28;20043;-58
2022/01/26 12:46:31;;;;;;;21.05;12.80;;;1.60;69.40;;;;;;5069889;28;20028;-58
2022/01/26 12:49:10;;;;;;;23.17;12.50;;;1.60;69.50;;;;;;5068607;28;20028;-57
2022/01/26 12:51:45;;;;;;;21.33;12.57;;;1.60;69.70;;;;;;5069196;28;20039;-60
2022/01/26 12:54:11;;;;;;;21.67;12.63;;;1.50;69.80;;;;;;5062414;28;20028;-57
2022/01/26 12:56:37;;;;;;;22.33;12.15;;;1.50;69.80;;;;;;5062799;28;20141;-58
2022/01/26 12:59:09;;;;;;;28.75;13.40;;;1.50;69.80;;;;;;5052962;28;20044;-58
2022/01/26 13:01:36;;;;;;;23.23;11.80;;;1.50;69.90;;;;;;5057009;28;20037;-58
2022/01/26 13:04:04;;;;;;;27.88;21.05;;;1.40;69.90;;;;;;5058356;28;20492;-61
2022/01/26 13:06:34;;;;;;;26.88;14.55;;;1.50;70.00;;;;;;5055193;28;20600;-60
2022/01/26 13:09:03;;;;;;;22.23;12.77;;;1.50;69.60;;;;;;5049616;28;20028;-60
2022/01/26 13:11:36;;;;;;;25.25;12.65;;;1.40;69.70;;;;;;5058390;28;20853;-58
2022/01/26 13:14:36;;;;;;;25.73;13.15;;;1.40;69.80;;;;;;5067026;28;20448;-58
2022/01/26 13:17:18;;;;;;;20.35;12.13;;;1.30;69.80;;;;;;5051632;28;20113;-59
2022/01/26 13:54:45;;;;;;;;;;;1.30;70.50;;;;;;5071711;28;20077;-60
2022/01/26 13:59:52;;;;;;;23.52;12.35;;;1.20;70.60;;;;;;5075441;28;20043;-60
2022/01/26 14:02:18;;;;;;;;;;;1.20;70.70;;;;;;5069235;28;20410;-58
2022/01/26 14:04:44;;;;;;;24.13;11.68;;;1.10;70.90;;;;;;5071520;28;19919;-59
2022/01/26 14:07:10;;;;;;;19.52;10.75;;;1.10;70.80;;;;;;5068370;28;20031;-59
2022/01/26 14:09:37;;;;;;;22.65;11.75;;;1.10;70.90;;;;;;5070508;28;20067;-59
2022/01/26 14:12:04;;;;;;;22.02;11.68;;;1.10;71.00;;;;;;5076201;28;20111;-59
2022/01/26 14:14:37;;;;;;;23.30;11.63;;;1.10;71.00;;;;;;5068659;28;20028;-58
2022/01/26 14:17:13;;;;;;;31.45;21.98;;;1.10;71.10;;;;;;5069483;28;20069;-57
2022/01/26 14:27:36;;;;;;;27.77;14.95;;;1.20;71.30;;;;;;5075577;28;20039;-58
2022/01/26 14:30:17;;;;;;;24.42;13.98;;;1.20;71.00;;;;;;5078356;28;20068;-58
2022/01/26 14:50:55;;;;;;;24.35;13.10;;;1.20;71.40;;;;;;5076413;28;20058;-60
2022/01/26 15:40:45;;;;;;;20.33;12.00;;;1.00;72.10;;;;;;5069786;28;20039;-58
2022/01/26 15:50:56;;;;;;;20.55;10.82;;;1.00;72.30;;;;;;5065074;28;20069;-58
2022/01/26 15:59:04;;;;;;;17.92;9.63;;;1.00;72.40;;;;;;5065422;28;19931;-56
2022/01/26 16:04:36;;;;;;;20.55;11.52;;;1.10;72.30;;;;;;5068400;28;20682;-55
2022/01/26 16:07:23;;;;;;;26.10;19.88;;;1.10;72.10;;;;;;5068395;28;20127;-57
2022/01/26 16:12:53;;;;;;;18.90;11.35;;;1.10;71.90;;;;;;5029850;28;20056;-58
2022/01/26 16:21:04;;;;;;;26.35;19.02;;;1.10;72.30;;;;;;5067871;28;20530;-56
2022/01/26 18:15:58;;;;;;;17.35;9.57;;;1.10;72.50;;;;;;5087005;28;20177;-57
2022/01/26 18:26:33;;;;;;;16.13;9.55;;;1.00;72.60;;;;;;5083994;28;20074;-58
2022/01/26 18:40:17;;;;;;;18.65;10.32;;;1.00;72.50;;;;;;5094514;28;20039;-57
2022/01/26 18:50:42;;;;;;;12.48;7.97;;;0.90;72.40;;;;;;5084532;28;20364;-58
2022/01/26 18:53:08;;;;;;;12.45;7.50;;;0.90;72.40;;;;;;5090966;28;20020;-55
2022/01/26 18:55:34;;;;;;;16.63;12.98;;;0.90;72.30;;;;;;5090539;28;20036;-56
2022/01/26 18:58:00;;;;;;;16.67;9.90;;;0.90;72.30;;;;;;5096109;28;20107;-56
2022/01/26 19:00:26;;;;;;;17.17;9.65;;;0.90;72.10;;;;;;5096190;28;20357;-58
2022/01/26 19:02:51;;;;;;;17.23;8.82;;;0.90;72.20;;;;;;5085414;28;20063;-58
2022/01/26 19:05:17;;;;;;;15.23;8.35;;;0.90;72.10;;;;;;5101520;28;20468;-58
2022/01/26 19:07:44;;;;;;;15.43;8.80;;;0.90;72.30;;;;;;5094678;28;20157;-58
2022/01/26 19:10:11;;;;;;;14.75;9.00;;;0.90;72.20;;;;;;5078609;28;20089;-58
2022/01/26 19:12:38;;;;;;;18.98;14.43;;;0.90;72.30;;;;;;5079113;28;20024;-58
2022/01/26 19:15:09;;;;;;;13.90;8.85;;;0.90;72.30;;;;;;5089746;28;20528;-58
2022/01/26 19:17:48;;;;;;;12.18;8.30;;;0.90;72.00;;;;;;5090298;28;20024;-58
2022/01/26 19:23:10;;;;;;;13.07;7.85;;;1.00;72.10;;;;;;5084194;28;20392;-58
2022/01/26 19:25:42;;;;;;;18.58;10.20;;;1.00;71.80;;;;;;5092307;28;20468;-58
2022/01/26 19:28:16;;;;;;;;;;;0.90;71.90;;;;;;5096170;28;20024;-58